createdAt,value
2023-04-11T00:01:32.903Z,100.00
2023-04-11T00:04:02.549Z,100.00
2023-04-11T00:06:33.989Z,100.00
2023-04-11T00:09:03.782Z,100.00
2023-04-11T00:11:36.020Z,100.00
2023-04-11T00:14:05.700Z,100.00
2023-04-11T00:16:37.707Z,100.00
2023-04-11T00:19:07.583Z,100.00
2023-04-11T00:21:40.219Z,100.00
2023-04-11T00:24:11.675Z,100.00
2023-04-11T00:26:43.901Z,100.00
2023-04-11T00:29:13.440Z,100.00
2023-04-11T00:31:43.009Z,100.00
2023-04-11T00:34:12.668Z,100.00
2023-04-11T00:36:42.486Z,100.00
2023-04-11T00:39:13.417Z,100.00
2023-04-11T00:41:45.554Z,100.00
2023-04-11T00:44:15.593Z,100.00
2023-04-11T00:46:46.952Z,100.00
2023-04-11T00:49:16.614Z,100.00
2023-04-11T00:51:46.208Z,100.00
2023-04-11T00:54:17.291Z,100.00
2023-04-11T00:56:49.651Z,100.00
2023-04-11T00:59:19.189Z,100.00
2023-04-11T01:01:50.136Z,100.00
2023-04-11T01:04:21.490Z,100.00
2023-04-11T01:06:54.563Z,100.00
2023-04-11T01:09:26.288Z,100.00
2023-04-11T01:11:59.253Z,100.00
2023-04-11T01:14:30.043Z,100.00
2023-04-11T01:17:02.497Z,100.00
2023-04-11T01:19:35.000Z,100.00
2023-04-11T01:22:04.658Z,100.00
2023-04-11T01:24:36.806Z,100.00
2023-04-11T01:27:06.490Z,100.00
2023-04-11T01:29:36.210Z,100.00
2023-04-11T01:32:05.780Z,100.00
2023-04-11T01:34:36.862Z,100.00
2023-04-11T01:37:06.509Z,100.00
2023-04-11T01:39:38.753Z,100.00
2023-04-11T01:42:09.822Z,100.00
2023-04-11T01:44:39.674Z,100.00
2023-04-11T01:47:09.230Z,100.00
2023-04-11T01:49:38.762Z,100.00
2023-04-11T01:52:08.315Z,100.00
2023-04-11T01:54:40.431Z,100.00
2023-04-11T01:57:09.982Z,100.00
2023-04-11T01:59:39.498Z,100.00
2023-04-11T02:02:09.126Z,100.00
2023-04-11T02:04:38.844Z,100.00
2023-04-11T02:07:08.393Z,100.00
2023-04-11T02:09:40.611Z,100.00
2023-04-11T02:12:10.255Z,100.00
2023-04-11T02:14:45.161Z,100.00
2023-04-11T02:17:15.292Z,100.00
2023-04-11T02:19:45.684Z,100.00
2023-04-11T02:22:15.455Z,100.00
2023-04-11T02:24:47.709Z,100.00
2023-04-11T02:27:17.262Z,100.00
2023-04-11T02:29:46.784Z,100.00
2023-04-11T02:32:16.520Z,100.00
2023-04-11T02:34:46.349Z,100.00
2023-04-11T02:37:15.858Z,100.00
2023-04-11T02:39:47.981Z,100.00
2023-04-11T02:42:17.494Z,100.00
2023-04-11T02:44:47.003Z,100.00
2023-04-11T02:47:16.521Z,100.00
2023-04-11T02:49:46.096Z,100.00
2023-04-11T02:52:16.024Z,100.00
2023-04-11T02:54:48.656Z,100.00
2023-04-11T02:57:18.197Z,100.00
2023-04-11T02:59:47.706Z,100.00
2023-04-11T03:02:17.327Z,100.00
2023-04-11T03:04:47.056Z,100.00
2023-04-11T03:07:16.571Z,100.00
2023-04-11T03:09:48.731Z,100.00
2023-04-11T03:12:20.362Z,100.00
2023-04-11T03:14:49.889Z,100.00
2023-04-11T03:17:19.450Z,100.00
2023-04-11T03:19:48.987Z,100.00
2023-04-11T03:22:18.528Z,100.00
2023-04-11T03:24:50.640Z,100.00
2023-04-11T03:27:20.191Z,100.00
2023-04-11T03:29:49.710Z,100.00
2023-04-11T03:32:19.285Z,100.00
2023-04-11T03:34:48.847Z,100.00
2023-04-11T03:37:18.393Z,100.00
2023-04-11T03:39:50.520Z,100.00
2023-04-11T03:42:20.139Z,100.00
2023-04-11T03:44:49.649Z,100.00
2023-04-11T03:47:19.206Z,100.00
2023-04-11T03:49:48.724Z,100.00
2023-04-11T03:52:18.275Z,100.00
2023-04-11T03:54:50.391Z,100.00
2023-04-11T03:57:19.949Z,100.00
2023-04-11T03:59:50.171Z,100.00
2023-04-11T04:02:19.778Z,100.00
2023-04-11T04:04:55.131Z,100.00
2023-04-11T04:07:24.904Z,100.00
2023-04-11T04:09:57.763Z,100.00
2023-04-11T04:12:27.343Z,100.00
2023-04-11T04:14:56.835Z,100.00
2023-04-11T04:17:26.871Z,100.00
2023-04-11T04:19:56.426Z,100.00
2023-04-11T04:22:26.886Z,100.00
2023-04-11T04:24:59.760Z,100.00
2023-04-11T04:27:29.306Z,100.00
2023-04-11T04:30:03.511Z,100.00
2023-04-11T04:32:34.775Z,100.00
2023-04-11T04:35:04.649Z,100.00
2023-04-11T04:37:34.258Z,100.00
2023-04-11T04:40:13.358Z,100.00
2023-04-11T04:42:44.236Z,100.00
2023-04-11T04:45:13.935Z,100.00
2023-04-11T04:47:43.607Z,100.00
2023-04-11T04:50:13.953Z,100.00
2023-04-11T04:52:43.508Z,100.00
2023-04-11T04:55:15.618Z,100.00
2023-04-11T04:57:45.633Z,100.00
2023-04-11T05:00:16.029Z,100.00
2023-04-11T05:02:45.731Z,100.00
2023-04-11T05:05:16.047Z,100.00
2023-04-11T05:07:45.591Z,100.00
2023-04-11T05:10:17.781Z,100.00
2023-04-11T05:12:47.797Z,100.00
2023-04-11T05:15:17.903Z,100.00
2023-04-11T05:17:47.440Z,100.00
2023-04-11T05:20:17.035Z,100.00
2023-04-11T05:22:47.770Z,100.00
2023-04-11T05:25:19.964Z,100.00
2023-04-11T05:27:49.487Z,100.00
2023-04-11T05:30:19.569Z,100.00
2023-04-11T05:32:49.248Z,100.00
2023-04-11T05:35:18.877Z,100.00
2023-04-11T05:37:48.414Z,100.00
2023-04-11T05:40:20.741Z,100.00
2023-04-11T05:42:50.281Z,100.00
2023-04-11T05:45:20.083Z,100.00
2023-04-11T05:47:49.678Z,100.00
2023-04-11T05:50:19.252Z,100.00
2023-04-11T05:52:48.773Z,100.00
2023-04-11T05:55:21.331Z,100.00
2023-04-11T05:57:50.851Z,100.00
2023-04-11T06:00:21.844Z,100.00
2023-04-11T06:02:51.900Z,100.00
2023-04-11T06:05:22.139Z,100.00
2023-04-11T06:07:51.633Z,100.00
2023-04-11T06:10:23.871Z,100.00
2023-04-11T06:12:53.425Z,100.00
2023-04-11T06:15:23.359Z,100.00
2023-04-11T06:17:53.247Z,100.00
2023-04-11T06:20:23.704Z,100.00
2023-04-11T06:22:53.734Z,100.00
2023-04-11T06:25:25.944Z,100.00
2023-04-11T06:27:55.544Z,100.00
2023-04-11T06:30:25.213Z,100.00
2023-04-11T06:32:54.733Z,100.00
2023-04-11T06:35:25.114Z,100.00
2023-04-11T06:37:54.731Z,100.00
2023-04-11T06:40:26.838Z,100.00
2023-04-11T06:42:58.117Z,100.00
2023-04-11T06:45:27.644Z,100.00
2023-04-11T06:47:57.218Z,100.00
2023-04-11T06:50:26.806Z,100.00
2023-04-11T06:52:58.449Z,100.00
2023-04-11T06:55:31.123Z,100.00
2023-04-11T06:58:01.498Z,100.00
2023-04-11T07:00:31.361Z,100.00
2023-04-11T07:03:01.130Z,100.00
2023-04-11T07:05:30.892Z,100.00
2023-04-11T07:08:01.058Z,100.00
2023-04-11T07:10:33.159Z,100.00
2023-04-11T07:13:02.715Z,100.00
2023-04-11T07:15:32.245Z,100.00
2023-04-11T07:18:01.811Z,100.00
2023-04-11T07:20:33.030Z,100.00
2023-04-11T07:23:03.060Z,100.00
2023-04-11T07:25:35.433Z,100.00
2023-04-11T07:28:07.530Z,100.00
2023-04-11T07:30:37.446Z,100.00
2023-04-11T07:33:07.433Z,100.00
2023-04-11T07:35:37.333Z,100.00
2023-04-11T07:38:09.606Z,100.00
2023-04-11T07:40:41.715Z,100.00
2023-04-11T07:43:11.221Z,100.00
2023-04-11T07:45:41.818Z,100.00
2023-04-11T07:48:12.103Z,100.00
2023-04-11T07:50:41.631Z,100.00
2023-04-11T07:53:11.254Z,100.00
2023-04-11T07:55:43.661Z,100.00
2023-04-11T07:58:13.200Z,100.00
2023-04-11T08:00:43.204Z,100.00
2023-04-11T08:03:14.377Z,100.00
2023-04-11T08:05:44.087Z,100.00
2023-04-11T08:08:13.874Z,100.00
2023-04-11T08:10:46.370Z,100.00
2023-04-11T08:13:16.309Z,100.00
2023-04-11T08:15:46.070Z,100.00
2023-04-11T08:18:16.685Z,100.00
2023-04-11T08:20:46.318Z,100.00
2023-04-11T08:23:16.562Z,100.00
2023-04-11T08:25:48.758Z,100.00
2023-04-11T08:28:18.424Z,100.00
2023-04-11T08:30:47.995Z,100.00
2023-04-11T08:33:17.676Z,100.00
2023-04-11T08:35:47.272Z,100.00
2023-04-11T08:38:16.861Z,100.00
2023-04-11T08:40:49.006Z,100.00
2023-04-11T08:43:18.540Z,100.00
2023-04-11T08:45:48.087Z,100.00
2023-04-11T08:48:19.638Z,100.00
2023-04-11T08:50:49.176Z,100.00
2023-04-11T08:53:21.861Z,100.00
2023-04-11T08:55:54.346Z,100.00
2023-04-11T08:58:23.973Z,100.00
2023-04-11T09:00:53.506Z,100.00
2023-04-11T09:03:23.167Z,100.00
2023-04-11T09:05:52.834Z,100.00
2023-04-11T09:08:22.355Z,100.00
2023-04-11T09:10:54.446Z,100.00
2023-04-11T09:13:25.854Z,100.00
2023-04-11T09:16:07.788Z,100.00
2023-04-11T09:18:38.939Z,100.00
2023-04-11T09:21:10.238Z,100.00
2023-04-11T09:23:40.576Z,100.00
2023-04-11T09:26:13.903Z,100.00
2023-04-11T09:28:44.983Z,100.00
2023-04-11T09:31:14.957Z,100.00
2023-04-11T09:33:56.036Z,100.00
2023-04-11T09:36:28.642Z,100.00
2023-04-11T09:38:59.390Z,100.00
2023-04-11T09:41:36.204Z,100.00
2023-04-11T09:44:06.021Z,100.00
2023-04-11T09:46:36.246Z,100.00
2023-04-11T09:49:06.313Z,99.14
2023-04-11T09:51:38.426Z,97.97
2023-04-11T09:54:08.106Z,97.98
2023-04-11T09:56:40.246Z,98.61
2023-04-11T09:59:10.434Z,95.52
2023-04-11T10:01:42.140Z,93.00
2023-04-11T10:04:13.079Z,90.99
2023-04-11T10:06:50.592Z,91.27
2023-04-11T10:09:20.283Z,90.60
2023-04-11T10:11:52.553Z,90.78
2023-04-11T10:14:46.717Z,91.20
2023-04-11T10:17:23.306Z,90.89
2023-04-11T10:19:57.730Z,88.41
2023-04-11T10:23:00.165Z,88.46
2023-04-11T10:25:30.810Z,88.60
2023-04-11T10:28:04.716Z,87.00
2023-04-11T10:31:09.231Z,88.55
2023-04-11T10:33:40.516Z,87.04
2023-04-11T10:36:12.930Z,86.71
2023-04-11T10:38:50.050Z,88.51
2023-04-11T10:41:34.407Z,91.04
2023-04-11T10:44:33.302Z,91.42
2023-04-11T10:47:02.958Z,91.95
2023-04-11T10:49:39.324Z,89.06
2023-04-11T10:52:20.755Z,90.96
2023-04-11T10:54:50.370Z,90.82
2023-04-11T10:57:20.368Z,92.50
2023-04-11T11:00:02.659Z,89.37
2023-04-11T11:02:42.586Z,89.96
2023-04-11T11:05:20.698Z,89.83
2023-04-11T11:07:52.176Z,92.00
2023-04-11T11:10:43.861Z,95.48
2023-04-11T11:13:13.714Z,97.92
2023-04-11T11:15:50.552Z,99.14
2023-04-11T11:18:21.266Z,100.00
2023-04-11T11:20:50.772Z,100.00
2023-04-11T11:23:20.417Z,100.00
2023-04-11T11:25:55.716Z,100.00
2023-04-11T11:28:25.705Z,100.00
2023-04-11T11:30:59.305Z,100.00
2023-04-11T11:33:29.555Z,100.00
2023-04-11T11:36:01.322Z,100.00
2023-04-11T11:38:32.434Z,100.00
2023-04-11T11:41:02.406Z,100.00
2023-04-11T11:43:32.198Z,100.00
2023-04-11T11:46:17.980Z,100.00
2023-04-11T11:49:02.287Z,100.00
2023-04-11T11:51:43.698Z,100.00
2023-04-11T11:54:14.719Z,100.00
2023-04-11T11:56:44.301Z,100.00
2023-04-11T11:59:13.875Z,100.00
2023-04-11T12:01:46.728Z,100.00
2023-04-11T12:04:16.433Z,100.00
2023-04-11T12:06:47.374Z,100.00
2023-04-11T12:09:17.207Z,100.00
2023-04-11T12:11:47.442Z,100.00
2023-04-11T12:14:25.736Z,100.00
2023-04-11T12:16:59.029Z,100.00
2023-04-11T12:19:29.747Z,100.00
2023-04-11T12:21:59.266Z,100.00
2023-04-11T12:24:28.812Z,100.00
2023-04-11T12:27:06.774Z,100.00
2023-04-11T12:29:36.901Z,100.00
2023-04-11T12:32:09.082Z,100.00
2023-04-11T12:34:38.617Z,100.00
2023-04-11T12:37:08.140Z,100.00
2023-04-11T12:39:38.003Z,100.00
2023-04-11T12:42:08.635Z,100.00
2023-04-11T12:44:39.046Z,100.00
2023-04-11T12:47:11.168Z,100.00
2023-04-11T12:49:40.644Z,100.00
2023-04-11T12:52:10.197Z,100.00
2023-04-11T12:54:39.847Z,100.00
2023-04-11T12:57:09.367Z,100.00
2023-04-11T12:59:38.915Z,100.00
2023-04-11T13:02:11.115Z,100.00
2023-04-11T13:04:40.850Z,100.00
2023-04-11T13:07:10.739Z,100.00
2023-04-11T13:09:40.258Z,100.00
2023-04-11T13:12:09.976Z,100.00
2023-04-11T13:14:39.857Z,100.00
2023-04-11T13:17:12.128Z,100.00
2023-04-11T13:19:41.638Z,100.00
2023-04-11T13:22:11.492Z,100.00
2023-04-11T13:24:40.987Z,100.00
2023-04-11T13:27:10.542Z,100.00
2023-04-11T13:29:40.144Z,100.00
2023-04-11T13:32:12.302Z,100.00
2023-04-11T13:34:41.837Z,100.00
2023-04-11T13:37:11.395Z,100.00
2023-04-11T13:39:40.902Z,100.00
2023-04-11T13:42:10.674Z,100.00
2023-04-11T13:44:40.201Z,100.00
2023-04-11T13:47:12.304Z,100.00
2023-04-11T13:49:41.806Z,100.00
2023-04-11T13:52:11.351Z,100.00
2023-04-11T13:54:40.996Z,100.00
2023-04-11T13:57:10.504Z,100.00
2023-04-11T13:59:39.997Z,100.00
2023-04-11T14:02:12.725Z,100.00
2023-04-11T14:04:42.366Z,100.00
2023-04-11T14:07:12.663Z,100.00
2023-04-11T14:09:42.281Z,100.00
2023-04-11T14:12:11.775Z,100.00
2023-04-11T14:14:41.340Z,100.00
2023-04-11T14:17:13.447Z,100.00
2023-04-11T14:19:42.966Z,100.00
2023-04-11T14:22:12.504Z,100.00
2023-04-11T14:24:42.420Z,100.00
2023-04-11T14:27:12.111Z,100.00
2023-04-11T14:29:42.399Z,100.00
2023-04-11T14:32:14.514Z,100.00
2023-04-11T14:34:44.072Z,100.00
2023-04-11T14:37:13.738Z,100.00
2023-04-11T14:39:43.251Z,100.00
2023-04-11T14:42:12.751Z,100.00
2023-04-11T14:44:42.258Z,100.00
2023-04-11T14:47:14.409Z,100.00
2023-04-11T14:49:44.236Z,100.00
2023-04-11T14:52:13.799Z,100.00
2023-04-11T14:54:43.290Z,100.00
2023-04-11T14:57:12.816Z,100.00
2023-04-11T14:59:43.512Z,100.00
2023-04-11T15:02:16.072Z,100.00
2023-04-11T15:04:45.990Z,100.00
2023-04-11T15:07:15.735Z,100.00
2023-04-11T15:09:46.379Z,100.00
2023-04-11T15:12:16.247Z,100.00
2023-04-11T15:14:45.941Z,100.00
2023-04-11T15:17:18.098Z,100.00
2023-04-11T15:19:47.585Z,100.00
2023-04-11T15:22:17.101Z,100.00
2023-04-11T15:24:46.626Z,100.00
2023-04-11T15:27:16.282Z,100.00
2023-04-11T15:29:45.811Z,100.00
2023-04-11T15:32:17.923Z,100.00
2023-04-11T15:34:49.839Z,100.00
2023-04-11T15:37:19.369Z,100.00
2023-04-11T15:39:48.885Z,100.00
2023-04-11T15:42:19.284Z,100.00
2023-04-11T15:44:48.869Z,100.00
2023-04-11T15:47:21.108Z,100.00
2023-04-11T15:49:50.679Z,100.00
2023-04-11T15:52:21.507Z,100.00
2023-04-11T15:54:51.115Z,100.00
2023-04-11T15:57:21.178Z,100.00
2023-04-11T15:59:50.941Z,100.00
2023-04-11T16:02:23.483Z,100.00
2023-04-11T16:04:54.189Z,100.00
2023-04-11T16:07:24.319Z,100.00
2023-04-11T16:09:53.801Z,100.00
2023-04-11T16:12:23.464Z,100.00
2023-04-11T16:14:53.004Z,100.00
2023-04-11T16:17:25.185Z,100.00
2023-04-11T16:19:55.550Z,100.00
2023-04-11T16:22:25.251Z,100.00
2023-04-11T16:24:56.410Z,100.00
2023-04-11T16:27:26.027Z,100.00
2023-04-11T16:29:59.954Z,100.00
2023-04-11T16:32:32.201Z,100.00
2023-04-11T16:35:01.940Z,100.00
2023-04-11T16:37:31.598Z,100.00
2023-04-11T16:40:01.358Z,100.00
2023-04-11T16:42:30.943Z,100.00
2023-04-11T16:45:00.464Z,100.00
2023-04-11T16:47:32.595Z,100.00
2023-04-11T16:50:02.303Z,100.00
2023-04-11T16:52:31.974Z,100.00
2023-04-11T16:55:03.126Z,100.00
2023-04-11T16:57:33.444Z,100.00
2023-04-11T17:00:08.096Z,100.00
2023-04-11T17:02:40.317Z,100.00
2023-04-11T17:05:11.628Z,100.00
2023-04-11T17:07:41.856Z,100.00
2023-04-11T17:10:12.544Z,100.00
2023-04-11T17:12:42.083Z,100.00
2023-04-11T17:15:12.353Z,100.00
2023-04-11T17:17:44.561Z,100.00
2023-04-11T17:20:14.822Z,100.00
2023-04-11T17:22:45.067Z,100.00
2023-04-11T17:25:15.039Z,100.00
2023-04-11T17:27:44.581Z,100.00
2023-04-11T17:30:14.778Z,100.00
2023-04-11T17:32:49.885Z,100.00
2023-04-11T17:35:19.521Z,100.00
2023-04-11T17:37:49.814Z,100.00
2023-04-11T17:40:19.986Z,100.00
2023-04-11T17:42:49.736Z,100.00
2023-04-11T17:45:19.452Z,100.00
2023-04-11T17:47:52.169Z,100.00
2023-04-11T17:50:23.260Z,100.00
2023-04-11T17:52:54.279Z,100.00
2023-04-11T17:55:23.987Z,100.00
2023-04-11T17:57:54.108Z,100.00
2023-04-11T18:00:26.335Z,100.00
2023-04-11T18:03:00.774Z,100.00
2023-04-11T18:05:31.929Z,100.00
2023-04-11T18:08:03.583Z,100.00
2023-04-11T18:10:33.894Z,100.00
2023-04-11T18:13:03.560Z,100.00
2023-04-11T18:15:33.279Z,100.00
2023-04-11T18:18:09.857Z,100.00
2023-04-11T18:20:39.760Z,100.00
2023-04-11T18:23:09.293Z,100.00
2023-04-11T18:25:38.838Z,100.00
2023-04-11T18:28:08.388Z,100.00
2023-04-11T18:30:37.967Z,100.00
2023-04-11T18:33:10.177Z,100.00
2023-04-11T18:35:39.746Z,100.00
2023-04-11T18:38:09.316Z,100.00
2023-04-11T18:40:38.975Z,100.00
2023-04-11T18:43:08.622Z,100.00
2023-04-11T18:45:39.421Z,100.00
2023-04-11T18:48:12.167Z,100.00
2023-04-11T18:50:43.179Z,100.00
2023-04-11T18:53:13.910Z,100.00
2023-04-11T18:55:43.894Z,100.00
2023-04-11T18:58:15.685Z,100.00
2023-04-11T19:00:49.563Z,100.00
2023-04-11T19:03:23.649Z,100.00
2023-04-11T19:05:54.183Z,100.00
2023-04-11T19:08:23.790Z,100.00
2023-04-11T19:10:55.934Z,100.00
2023-04-11T19:13:25.549Z,100.00
2023-04-11T19:15:55.177Z,100.00
2023-04-11T19:18:27.452Z,100.00
2023-04-11T19:20:58.688Z,100.00
2023-04-11T19:23:28.593Z,100.00
2023-04-11T19:26:00.560Z,100.00
2023-04-11T19:28:30.138Z,100.00
2023-04-11T19:30:59.703Z,100.00
2023-04-11T19:33:31.775Z,100.00
2023-04-11T19:36:01.575Z,100.00
2023-04-11T19:38:31.124Z,100.00
2023-04-11T19:41:00.676Z,100.00
2023-04-11T19:43:30.406Z,100.00
2023-04-11T19:46:00.006Z,100.00
2023-04-11T19:48:32.157Z,100.00
2023-04-11T19:51:02.888Z,100.00
2023-04-11T19:53:35.067Z,100.00
2023-04-11T19:56:06.276Z,100.00
2023-04-11T19:58:36.243Z,100.00
2023-04-11T20:01:07.156Z,100.00
2023-04-11T20:03:40.953Z,100.00
2023-04-11T20:06:12.622Z,100.00
2023-04-11T20:08:42.245Z,100.00
2023-04-11T20:11:11.790Z,100.00
2023-04-11T20:13:41.329Z,100.00
2023-04-11T20:16:11.683Z,100.00
2023-04-11T20:18:43.859Z,100.00
2023-04-11T20:21:13.399Z,100.00
2023-04-11T20:23:43.032Z,100.00
2023-04-11T20:26:12.600Z,100.00
2023-04-11T20:28:43.180Z,100.00
2023-04-11T20:31:12.806Z,100.00
2023-04-11T20:33:45.600Z,100.00
2023-04-11T20:36:15.873Z,100.00
2023-04-11T20:38:45.997Z,100.00
2023-04-11T20:41:19.137Z,100.00
2023-04-11T20:43:48.924Z,100.00
2023-04-11T20:46:18.483Z,100.00
2023-04-11T20:48:50.611Z,100.00
2023-04-11T20:51:20.443Z,100.00
2023-04-11T20:53:50.005Z,100.00
2023-04-11T20:56:19.592Z,100.00
2023-04-11T20:58:49.187Z,100.00
2023-04-11T21:01:18.763Z,100.00
2023-04-11T21:03:51.545Z,100.00
2023-04-11T21:06:21.322Z,100.00
2023-04-11T21:08:51.527Z,100.00
2023-04-11T21:11:21.082Z,100.00
2023-04-11T21:13:51.411Z,100.00
2023-04-11T21:16:22.066Z,100.00
2023-04-11T21:18:54.338Z,100.00
2023-04-11T21:21:23.848Z,100.00
2023-04-11T21:23:53.978Z,100.00
2023-04-11T21:26:23.849Z,100.00
2023-04-11T21:28:53.410Z,100.00
2023-04-11T21:31:22.983Z,100.00
2023-04-11T21:33:55.543Z,100.00
2023-04-11T21:36:25.278Z,100.00
2023-04-11T21:38:54.974Z,100.00
2023-04-11T21:41:24.520Z,100.00
2023-04-11T21:43:54.022Z,100.00
2023-04-11T21:46:23.581Z,100.00
2023-04-11T21:48:56.035Z,100.00
2023-04-11T21:51:26.626Z,100.00
2023-04-11T21:53:56.388Z,100.00
2023-04-11T21:56:26.206Z,100.00
2023-04-11T21:58:55.696Z,100.00
2023-04-11T22:01:25.321Z,100.00
2023-04-11T22:03:59.445Z,100.00
2023-04-11T22:06:30.525Z,100.00
2023-04-11T22:09:01.476Z,100.00
2023-04-11T22:11:31.665Z,100.00
2023-04-11T22:14:02.320Z,100.00
2023-04-11T22:16:33.806Z,100.00
2023-04-11T22:19:06.366Z,100.00
2023-04-11T22:21:36.689Z,100.00
2023-04-11T22:24:09.597Z,100.00
2023-04-11T22:26:48.762Z,100.00
2023-04-11T22:29:19.067Z,100.00
2023-04-11T22:31:50.572Z,100.00
2023-04-11T22:34:22.691Z,100.00
2023-04-11T22:36:52.250Z,100.00
2023-04-11T22:39:22.230Z,100.00
2023-04-11T22:41:53.553Z,100.00
2023-04-11T22:44:23.200Z,100.00
2023-04-11T22:47:06.350Z,100.00
2023-04-11T22:49:40.813Z,100.00
2023-04-11T22:52:14.242Z,100.00
2023-04-11T22:54:44.573Z,100.00
2023-04-11T22:57:14.127Z,100.00
2023-04-11T22:59:43.682Z,100.00
2023-04-11T23:02:13.241Z,100.00
2023-04-11T23:04:45.700Z,100.00
2023-04-11T23:07:17.119Z,100.00
2023-04-11T23:09:47.382Z,100.00
2023-04-11T23:12:17.188Z,100.00
2023-04-11T23:14:46.733Z,100.00
2023-04-11T23:17:16.212Z,100.00
2023-04-11T23:19:49.232Z,100.00
2023-04-11T23:22:18.816Z,100.00
2023-04-11T23:24:48.363Z,100.00
2023-04-11T23:27:18.077Z,100.00
2023-04-11T23:29:51.584Z,100.00
2023-04-11T23:32:22.442Z,100.00
2023-04-11T23:34:54.645Z,100.00
2023-04-11T23:37:27.416Z,100.00
2023-04-11T23:39:57.243Z,100.00
2023-04-11T23:42:26.832Z,100.00
2023-04-11T23:44:56.765Z,100.00
2023-04-11T23:47:26.537Z,100.00
2023-04-11T23:49:58.649Z,100.00
2023-04-11T23:52:29.285Z,100.00
2023-04-11T23:54:59.146Z,100.00
2023-04-11T23:57:28.769Z,100.00
2023-04-11T23:59:58.494Z,100.00
